| time (UTC) | temp F | wind direction | speed MPH | gust MPH | rain 1hr in | rain 24hr in | rain mn in | humidity % | barometer mb |
| 20260502221519 | 55 | 276 | 1.0 | 7.0 | 0.00 | 0.00 | 0.00 | 43 | 1015.8 |
| 20260502221007 | 55 | 301 | 2.0 | 6.0 | 0.00 | 0.00 | 0.00 | 42 | 1015.7 |
| 20260502220509 | 55 | 303 | 0.0 | 4.0 | 0.00 | 0.00 | 0.00 | 42 | 1015.7 |
| 20260502220024 | 55 | 297 | 1.0 | 4.0 | 0.00 | 0.00 | 0.00 | 43 | 1015.6 |
| 20260502215508 | 55 | 283 | 0.0 | 4.0 | 0.00 | 0.00 | 0.00 | 42 | 1015.6 |
| 20260502215009 | 55 | 303 | 0.0 | 2.0 | 0.00 | 0.00 | 0.00 | 42 | 1015.6 |
| 20260502214525 | 55 | 318 | 1.0 | 4.0 | 0.00 | 0.00 | 0.00 | 41 | 1015.5 |
| 20260502214014 | 55 | 303 | 1.0 | 5.0 | 0.00 | 0.00 | 0.00 | 40 | 1015.5 |
| 20260502213510 | 55 | 293 | 1.0 | 9.0 | 0.00 | 0.00 | 0.00 | 41 | 1015.5 |
| 20260502213023 | 55 | 299 | 2.0 | 11.0 | 0.00 | 0.00 | 0.00 | 40 | 1015.5 |
| 20260502212508 | 56 | 312 | 3.0 | 11.0 | 0.00 | 0.00 | 0.00 | 39 | 1015.5 |
| 20260502212005 | 56 | 272 | 2.0 | 7.0 | 0.00 | 0.00 | 0.00 | 40 | 1015.5 |
| 20260502211514 | 56 | 292 | 2.0 | 9.0 | 0.00 | 0.00 | 0.00 | 41 | 1015.5 |
| 20260502211008 | 56 | 266 | 4.0 | 9.0 | 0.00 | 0.00 | 0.00 | 39 | 1015.4 |
| 20260502210509 | 56 | 283 | 3.0 | 7.0 | 0.00 | 0.00 | 0.00 | 43 | 1015.5 |
| 20260502210005 | 56 | 326 | 1.0 | 8.0 | 0.00 | 0.00 | 0.00 | 42 | 1015.4 |
| 20260502205505 | 56 | 290 | 1.0 | 8.0 | 0.00 | 0.00 | 0.00 | 40 | 1015.4 |
| 20260502205005 | 56 | 268 | 2.0 | 7.0 | 0.00 | 0.00 | 0.00 | 40 | 1015.4 |
| 20260502204506 | 56 | 295 | 2.0 | 9.0 | 0.00 | 0.00 | 0.00 | 39 | 1015.4 |
| 20260502204003 | 56 | 297 | 1.0 | 9.0 | 0.00 | 0.00 | 0.00 | 41 | 1015.4 |
| 20260502203503 | 56 | 279 | 1.0 | 5.0 | 0.00 | 0.00 | 0.00 | 45 | 1015.4 |
| 20260502203008 | 56 | 288 | 2.0 | 6.0 | 0.00 | 0.00 | 0.00 | 40 | 1015.5 |
| 20260502202504 | 56 | 262 | 3.0 | 9.0 | 0.00 | 0.00 | 0.00 | 42 | 1015.6 |
| 20260502202005 | 55 | 304 | 2.0 | 9.0 | 0.00 | 0.00 | 0.00 | 41 | 1015.6 |
| 20260502201512 | 55 | 292 | 2.0 | 6.0 | 0.00 | 0.00 | 0.00 | 40 | 1015.6 |
| 20260502201014 | 56 | 305 | 0.0 | 6.0 | 0.00 | 0.00 | 0.00 | 42 | 1015.7 |
| 20260502200509 | 56 | 301 | 0.0 | 7.0 | 0.00 | 0.00 | 0.00 | 42 | 1015.7 |
| 20260502200020 | 56 | 340 | 1.0 | 8.0 | 0.00 | 0.00 | 0.00 | 42 | 1015.7 |
| 20260502195504 | 56 | 224 | 1.0 | 8.0 | 0.00 | 0.00 | 0.00 | 42 | 1015.8 |
| 20260502195003 | 56 | 308 | 2.0 | 9.0 | 0.00 | 0.00 | 0.00 | 42 | 1015.7 |
| 20260502194505 | 56 | 283 | 3.0 | 9.0 | 0.00 | 0.00 | 0.00 | 39 | 1015.8 |
| 20260502194003 | 56 | 283 | 3.0 | 8.0 | 0.00 | 0.00 | 0.00 | 44 | 1015.8 |
| 20260502193503 | 56 | 289 | 2.0 | 7.0 | 0.00 | 0.00 | 0.00 | 44 | 1015.9 |
| 20260502193008 | 56 | 286 | 2.0 | 7.0 | 0.00 | 0.00 | 0.00 | 43 | 1016.0 |
| 20260502192505 | 56 | 288 | 2.0 | 7.0 | 0.00 | 0.00 | 0.00 | 41 | 1015.9 |
| 20260502192012 | 56 | 278 | 3.0 | 7.0 | 0.00 | 0.00 | 0.00 | 41 | 1016.0 |
| 20260502191512 | 56 | 299 | 2.0 | 8.0 | 0.00 | 0.00 | 0.00 | 41 | 1016.1 |
| 20260502191010 | 57 | 270 | 3.0 | 8.0 | 0.00 | 0.00 | 0.00 | 40 | 1016.1 |
| 20260502190511 | 57 | 303 | 4.0 | 8.0 | 0.00 | 0.00 | 0.00 | 39 | 1016.1 |
| 20260502190025 | 57 | 13 | 3.0 | 5.0 | 0.00 | 0.00 | 0.00 | 41 | 1016.2 |
| 20260502185508 | 57 | 135 | 1.0 | 9.0 | 0.00 | 0.00 | 0.00 | 41 | 1016.1 |
| 20260502185010 | 57 | 269 | 2.0 | 9.0 | 0.00 | 0.00 | 0.00 | 40 | 1016.2 |
| 20260502184519 | 57 | 310 | 2.0 | 10.0 | 0.00 | 0.00 | 0.00 | 40 | 1016.3 |
| 20260502184003 | 57 | 264 | 2.0 | 10.0 | 0.00 | 0.00 | 0.00 | 42 | 1016.3 |
| 20260502183504 | 56 | 243 | 2.0 | 10.0 | 0.00 | 0.00 | 0.00 | 42 | 1016.3 |
| 20260502183008 | 56 | 299 | 5.0 | 10.0 | 0.00 | 0.00 | 0.00 | 44 | 1016.4 |
| 20260502182506 | 56 | 262 | 1.0 | 4.0 | 0.00 | 0.00 | 0.00 | 45 | 1016.3 |
| 20260502182003 | 56 | 258 | 1.0 | 10.0 | 0.00 | 0.00 | 0.00 | 43 | 1016.4 |
| 20260502181512 | 55 | 299 | 2.0 | 10.0 | 0.00 | 0.00 | 0.00 | 44 | 1016.3 |
| 20260502181004 | 55 | 282 | 2.0 | 9.0 | 0.00 | 0.00 | 0.00 | 44 | 1016.6 |
| 20260502180506 | 54 | 295 | 3.0 | 8.0 | 0.00 | 0.00 | 0.00 | 44 | 1016.6 |
| 20260502170510 | 56 | 285 | 2.0 | 9.0 | 0.00 | 0.00 | 0.00 | 41 | 1016.9 |
| 20260502164010 | 56 | 274 | 4.0 | 14.0 | 0.00 | 0.00 | 0.00 | 41 | 1016.9 |
| 20260502163508 | 56 | 296 | 1.0 | 6.0 | 0.00 | 0.00 | 0.00 | 46 | 1016.9 |
| 20260502163034 | 56 | 280 | 1.0 | 10.0 | 0.00 | 0.00 | 0.00 | 42 | 1016.9 |
| 20260502162508 | 56 | 272 | 4.0 | 10.0 | 0.00 | 0.00 | 0.00 | 44 | 1016.9 |
| 20260502162003 | 56 | 191 | 2.0 | 9.0 | 0.00 | 0.00 | 0.00 | 43 | 1017.0 |
| 20260502161507 | 56 | 93 | 2.0 | 9.0 | 0.00 | 0.00 | 0.00 | 42 | 1017.2 |
| 20260502161008 | 56 | 286 | 3.0 | 8.0 | 0.00 | 0.00 | 0.00 | 43 | 1017.2 |
| 20260502160505 | 56 | 359 | 1.0 | 4.0 | 0.00 | 0.00 | 0.00 | 42 | 1017.2 |
| 20260502152011 | 56 | 278 | 2.0 | 7.0 | 0.00 | 0.00 | 0.00 | 50 | 1017.3 |
| 20260502151525 | 56 | 272 | 2.0 | 5.0 | 0.00 | 0.00 | 0.00 | 48 | 1017.4 |
| 20260502151005 | 56 | 248 | 1.0 | 4.0 | 0.00 | 0.00 | 0.00 | 49 | 1017.3 |
| 20260502150503 | 55 | 147 | 3.0 | 6.0 | 0.00 | 0.00 | 0.00 | 49 | 1017.3 |
| 20260502130508 | 47 | 201 | 1.0 | 4.0 | 0.00 | 0.00 | 0.00 | 79 | 1017.6 |
| 20260502123509 | 43 | 216 | 0.0 | 2.0 | 0.00 | 0.00 | 0.00 | 91 | 1017.7 |
| 20260502123020 | 42 | 230 | 0.0 | 2.0 | 0.00 | 0.00 | 0.00 | 91 | 1017.5 |
| 20260502122508 | 42 | 305 | 0.0 | 2.0 | 0.00 | 0.00 | 0.00 | 91 | 1017.4 |
| 20260502122017 | 41 | 307 | 0.0 | 2.0 | 0.00 | 0.00 | 0.00 | 91 | 1017.4 |
| 20260502121518 | 41 | 307 | 0.0 | 2.0 | 0.00 | 0.00 | 0.00 | 91 | 1017.3 |
| 20260502121007 | 40 | 310 | 0.0 | 2.0 | 0.00 | 0.00 | 0.00 | 91 | 1017.6 |
| 20260502120507 | 40 | 310 | 1.0 | 2.0 | 0.00 | 0.00 | 0.00 | 91 | 1017.6 |
| 20260502115505 | 39 | 320 | 1.0 | 2.0 | 0.00 | 0.00 | 0.00 | 91 | 1017.4 |
| 20260502115008 | 39 | 339 | 1.0 | 2.0 | 0.00 | 0.00 | 0.00 | 91 | 1017.4 |
| 20260502114513 | 38 | 351 | 1.0 | 1.0 | 0.00 | 0.00 | 0.00 | 91 | 1017.3 |
| 20260502114004 | 38 | 351 | 0.0 | 1.0 | 0.00 | 0.00 | 0.00 | 91 | 1017.3 |
| 20260502113506 | 38 | 351 | 0.0 | 0.0 | 0.00 | 0.00 | 0.00 | 90 | 1017.2 |
| 20260502113014 | 37 | 351 | 0.0 | 0.0 | 0.00 | 0.00 | 0.00 | 90 | 1017.2 |
| 20260502112506 | 37 | 351 | 0.0 | 0.0 | 0.00 | 0.00 | 0.00 | 89 | 1017.1 |
| 20260502112007 | 37 | 351 | 0.0 | 0.0 | 0.00 | 0.00 | 0.00 | 89 | 1017.1 |
| 20260502111517 | 37 | 351 | 0.0 | 0.0 | 0.00 | 0.00 | 0.00 | 89 | 1017.1 |
| 20260502111007 | 37 | 351 | 0.0 | 0.0 | 0.00 | 0.00 | 0.00 | 89 | 1017.1 |
| 20260502110509 | 36 | 351 | 0.0 | 0.0 | 0.00 | 0.00 | 0.00 | 89 | 1017.0 |
| 20260502110022 | 36 | 351 | 0.0 | 0.0 | 0.00 | 0.00 | 0.00 | 88 | 1016.9 |
| 20260502105509 | 36 | 351 | 0.0 | 0.0 | 0.00 | 0.00 | 0.00 | 88 | 1016.9 |
| 20260502105003 | 36 | 351 | 0.0 | 0.0 | 0.00 | 0.00 | 0.00 | 88 | 1016.9 |
| 20260502104507 | 36 | 351 | 0.0 | 0.0 | 0.00 | 0.00 | 0.00 | 88 | 1016.9 |
| 20260502104003 | 36 | 351 | 0.0 | 0.0 | 0.00 | 0.00 | 0.00 | 88 | 1017.0 |
| 20260502103503 | 37 | 351 | 0.0 | 0.0 | 0.00 | 0.00 | 0.00 | 88 | 1017.0 |
| 20260502103015 | 36 | 351 | 0.0 | 0.0 | 0.00 | 0.00 | 0.00 | 88 | 1016.9 |
| 20260502102507 | 37 | 351 | 0.0 | 0.0 | 0.00 | 0.00 | 0.00 | 88 | 1016.9 |
| 20260502102012 | 37 | 351 | 0.0 | 0.0 | 0.00 | 0.00 | 0.00 | 88 | 1016.9 |
| 20260502091006 | 37 | 351 | 0.0 | 0.0 | 0.00 | 0.00 | 0.00 | 88 | 1017.1 |
| 20260502090506 | 37 | 351 | 0.0 | 2.0 | 0.00 | 0.00 | 0.00 | 88 | 1017.1 |
| 20260502071530 | 38 | 56 | 0.0 | 2.0 | 0.00 | 0.00 | 0.00 | 86 | 1016.7 |
| 20260502071006 | 38 | 56 | 0.0 | 2.0 | 0.00 | 0.00 | 0.00 | 86 | 1016.7 |
| 20260502070013 | 38 | 56 | 0.0 | 2.0 | 0.00 | 0.00 | 0.00 | 86 | 1016.8 |
| 20260502065012 | 38 | 56 | 0.0 | 0.0 | 0.00 | 0.00 | 0.00 | 85 | 1017.0 |
| 20260502064008 | 38 | 56 | 0.0 | 0.0 | 0.00 | 0.00 | 0.00 | 85 | 1017.1 |
| 20260502063507 | 38 | 56 | 0.0 | 0.0 | 0.00 | 0.00 | 0.00 | 85 | 1017.1 |
| 20260502061525 | 39 | 56 | 0.0 | 2.0 | 0.00 | 0.00 | 0.00 | 85 | 1017.2 |
| 20260502061011 | 39 | 56 | 0.0 | 0.0 | 0.00 | 0.00 | 0.00 | 85 | 1017.2 |
| 20260502060027 | 39 | 56 | 0.0 | 2.0 | 0.00 | 0.00 | 0.00 | 84 | 1017.3 |
| 20260502055507 | 39 | 56 | 0.0 | 2.0 | 0.00 | 0.00 | 0.00 | 84 | 1017.2 |
| 20260502055008 | 39 | 56 | 0.0 | 0.0 | 0.00 | 0.00 | 0.00 | 84 | 1017.2 |
| 20260502054006 | 39 | 56 | 0.0 | 1.0 | 0.00 | 0.00 | 0.00 | 83 | 1017.2 |
| 20260502053507 | 40 | 56 | 0.0 | 1.0 | 0.00 | 0.00 | 0.00 | 83 | 1017.3 |
| 20260502053020 | 40 | 56 | 0.0 | 0.0 | 0.00 | 0.00 | 0.00 | 83 | 1017.3 |
| 20260502052507 | 40 | 56 | 0.0 | 0.0 | 0.00 | 0.00 | 0.00 | 83 | 1017.3 |
| 20260502052011 | 40 | 56 | 0.0 | 0.0 | 0.00 | 0.00 | 0.00 | 82 | 1017.4 |
| 20260502051524 | 40 | 56 | 0.0 | 2.0 | 0.00 | 0.00 | 0.00 | 82 | 1017.4 |
| 20260502051006 | 40 | 56 | 0.0 | 2.0 | 0.00 | 0.00 | 0.00 | 82 | 1017.4 |
| 20260502050510 | 41 | 56 | 0.0 | 0.0 | 0.00 | 0.00 | 0.00 | 81 | 1017.5 |
| 20260502050034 | 41 | 56 | 0.0 | 0.0 | 0.00 | 0.00 | 0.00 | 81 | 1017.5 |
| 20260502045510 | 41 | 56 | 0.0 | 0.0 | 0.00 | 0.00 | 0.00 | 80 | 1017.5 |
| 20260502045012 | 41 | 56 | 0.0 | 0.0 | 0.00 | 0.00 | 0.00 | 80 | 1017.4 |
| 20260502044528 | 41 | 56 | 0.0 | 0.0 | 0.00 | 0.00 | 0.00 | 80 | 1017.5 |
| 20260502043507 | 41 | 56 | 0.0 | 2.0 | 0.00 | 0.00 | 0.00 | 80 | 1017.5 |
| 20260502042508 | 42 | 56 | 0.0 | 2.0 | 0.00 | 0.00 | 0.00 | 80 | 1017.7 |
| 20260502042012 | 42 | 71 | 0.0 | 2.0 | 0.00 | 0.00 | 0.00 | 79 | 1017.6 |
| 20260502041526 | 42 | 71 | 0.0 | 2.0 | 0.00 | 0.00 | 0.00 | 78 | 1017.5 |
| 20260502041007 | 43 | 71 | 0.0 | 0.0 | 0.00 | 0.00 | 0.00 | 78 | 1017.7 |
| 20260502040508 | 43 | 71 | 0.0 | 0.0 | 0.00 | 0.00 | 0.00 | 76 | 1017.7 |
| 20260502040022 | 43 | 71 | 0.0 | 0.0 | 0.00 | 0.00 | 0.00 | 77 | 1017.7 |
| 20260502035510 | 43 | 71 | 0.0 | 0.0 | 0.00 | 0.00 | 0.00 | 76 | 1017.6 |
| 20260502035013 | 43 | 71 | 0.0 | 0.0 | 0.00 | 0.00 | 0.00 | 76 | 1017.5 |
| 20260502034526 | 44 | 71 | 0.0 | 2.0 | 0.00 | 0.00 | 0.00 | 75 | 1017.6 |
| 20260502034010 | 44 | 71 | 0.0 | 2.0 | 0.00 | 0.00 | 0.00 | 75 | 1017.5 |
| 20260502033514 | 44 | 71 | 0.0 | 2.0 | 0.00 | 0.00 | 0.00 | 76 | 1017.4 |
| 20260502033018 | 44 | 71 | 0.0 | 2.0 | 0.00 | 0.00 | 0.00 | 75 | 1017.4 |
| 20260502032507 | 45 | 71 | 0.0 | 2.0 | 0.00 | 0.00 | 0.00 | 74 | 1017.3 |
| 20260502031008 | 46 | 71 | 0.0 | 0.0 | 0.00 | 0.00 | 0.00 | 72 | 1017.3 |
| 20260502030509 | 46 | 71 | 0.0 | 2.0 | 0.00 | 0.00 | 0.00 | 71 | 1017.3 |
| 20260502030030 | 46 | 71 | 0.0 | 2.0 | 0.00 | 0.00 | 0.00 | 71 | 1017.4 |
| 20260502025508 | 47 | 71 | 0.0 | 2.0 | 0.00 | 0.00 | 0.00 | 71 | 1017.5 |
| 20260502025010 | 47 | 71 | 0.0 | 0.0 | 0.00 | 0.00 | 0.00 | 68 | 1017.5 |
| 20260502024527 | 47 | 71 | 0.0 | 0.0 | 0.00 | 0.00 | 0.00 | 68 | 1017.5 |
| 20260502024009 | 48 | 71 | 0.0 | 0.0 | 0.00 | 0.00 | 0.00 | 67 | 1017.6 |
| 20260502023513 | 48 | 71 | 0.0 | 0.0 | 0.00 | 0.00 | 0.00 | 67 | 1017.7 |
| 20260502023024 | 49 | 71 | 0.0 | 0.0 | 0.00 | 0.00 | 0.00 | 66 | 1017.7 |
| 20260502022509 | 49 | 71 | 0.0 | 1.0 | 0.00 | 0.00 | 0.00 | 65 | 1017.7 |
| 20260502022010 | 49 | 71 | 0.0 | 1.0 | 0.00 | 0.00 | 0.00 | 65 | 1017.6 |
| 20260502021514 | 49 | 71 | 0.0 | 1.0 | 0.00 | 0.00 | 0.00 | 64 | 1017.5 |
| 20260502020507 | 50 | 71 | 0.0 | 0.0 | 0.00 | 0.00 | 0.00 | 62 | 1017.1 |
| 20260502015508 | 50 | 71 | 0.0 | 2.0 | 0.00 | 0.00 | 0.00 | 62 | 1016.8 |
| 20260502015008 | 50 | 71 | 0.0 | 2.0 | 0.00 | 0.00 | 0.00 | 60 | 1016.8 |
| 20260502014529 | 51 | 71 | 0.0 | 2.0 | 0.00 | 0.00 | 0.00 | 59 | 1016.7 |
| 20260502014008 | 51 | 71 | 0.0 | 2.0 | 0.00 | 0.00 | 0.00 | 59 | 1016.5 |
| 20260502013509 | 51 | 71 | 0.0 | 2.0 | 0.00 | 0.00 | 0.00 | 58 | 1016.5 |
| 20260502013023 | 51 | 71 | 0.0 | 3.0 | 0.00 | 0.00 | 0.00 | 58 | 1016.6 |
| 20260502012937 | 51 | 89 | 1.0 | 3.0 | 0.00 | 0.00 | 0.00 | 58 | 1016.2 |
| 20260502012930 | 51 | 52 | 0.0 | 3.0 | 0.00 | 0.00 | 0.00 | 57 | 1016.1 |
| 20260502012927 | 52 | 291 | 0.0 | 3.0 | 0.00 | 0.00 | 0.00 | 57 | 1016.1 |
| 20260502012923 | 52 | 64 | 1.0 | 6.0 | 0.00 | 0.00 | 0.00 | 56 | 1016.0 |
| 20260502012920 | 52 | 84 | 0.0 | 2.0 | 0.00 | 0.00 | 0.00 | 57 | 1015.9 |
| 20260502012916 | 52 | 100 | 1.0 | 2.0 | 0.00 | 0.00 | 0.00 | 57 | 1015.7 |
| 20260502012913 | 52 | 131 | 1.0 | 3.0 | 0.00 | 0.00 | 0.00 | 56 | 1015.5 |
| 20260502012910 | 53 | 129 | 1.0 | 3.0 | 0.00 | 0.00 | 0.00 | 56 | 1015.5 |
| 20260502012907 | 53 | 94 | 0.0 | 3.0 | 0.00 | 0.00 | 0.00 | 56 | 1015.6 |
| 20260502012900 | 53 | 59 | 2.0 | 9.0 | 0.00 | 0.00 | 0.00 | 57 | 1015.3 |
| 20260502012856 | 53 | 126 | 2.0 | 11.0 | 0.00 | 0.00 | 0.00 | 57 | 1015.3 |
| 20260502012852 | 54 | 299 | 2.0 | 11.0 | 0.00 | 0.00 | 0.00 | 56 | 1015.0 |
| 20260502012848 | 54 | 74 | 0.0 | 7.0 | 0.00 | 0.00 | 0.00 | 57 | 1015.1 |
| 20260502012846 | 55 | 29 | 2.0 | 5.0 | 0.00 | 0.00 | 0.00 | 57 | 1015.0 |
| 20260502012842 | 55 | 84 | 1.0 | 8.0 | 0.00 | 0.00 | 0.00 | 57 | 1014.9 |
| 20260502012832 | 55 | 8 | 2.0 | 8.0 | 0.00 | 0.00 | 0.00 | 56 | 1014.7 |
| 20260502012828 | 56 | 118 | 2.0 | 4.0 | 0.00 | 0.00 | 0.00 | 56 | 1014.6 |
| 20260502012826 | 56 | 291 | 2.0 | 3.0 | 0.00 | 0.00 | 0.00 | 55 | 1014.3 |
| 20260502012821 | 56 | 296 | 1.0 | 5.0 | 0.00 | 0.00 | 0.00 | 55 | 1014.2 |
| 20260502012819 | 57 | 52 | 0.0 | 5.0 | 0.00 | 0.00 | 0.00 | 55 | 1013.8 |
| 20260502012813 | 57 | 285 | 2.0 | 0.0 | 0.00 | 0.00 | 0.00 | 54 | 1013.4 |
| 20260502000748 | 57 | 285 | 1.0 | 5.0 | 0.00 | 0.00 | 0.00 | 54 | 1013.4 |
| 20260502000157 | 57 | 281 | 1.0 | 5.0 | 0.00 | 0.00 | 0.00 | 53 | 1013.5 |
| 20260501235504 | 57 | 297 | 1.0 | 4.0 | 0.00 | 0.00 | 0.00 | 54 | 1013.7 |
| 20260501234650 | 57 | 259 | 0.0 | 6.0 | 0.00 | 0.00 | 0.00 | 54 | 1013.6 |
| 20260501234324 | 57 | 295 | 1.0 | 8.0 | 0.00 | 0.00 | 0.00 | 54 | 1013.7 |
| 20260501232704 | 58 | 293 | 4.0 | 11.0 | 0.00 | 0.00 | 0.00 | 51 | 1013.7 |
| 20260501231847 | 58 | 229 | 3.0 | 8.0 | 0.00 | 0.00 | 0.00 | 52 | 1013.7 |
| 20260501231533 | 58 | 21 | 2.0 | 7.0 | 0.00 | 0.00 | 0.00 | 52 | 1013.6 |
| 20260501230931 | 58 | 234 | 2.0 | 8.0 | 0.00 | 0.00 | 0.00 | 53 | 1013.5 |
| 20260501230031 | 58 | 290 | 1.0 | 9.0 | 0.00 | 0.00 | 0.00 | 53 | 1013.4 |
| 20260501225313 | 57 | 287 | 1.0 | 9.0 | 0.00 | 0.00 | 0.00 | 54 | 1013.5 |
| 20260501224715 | 57 | 266 | 2.0 | 4.0 | 0.00 | 0.00 | 0.00 | 57 | 1013.5 |
| 20260501223913 | 57 | 246 | 2.0 | 4.0 | 0.00 | 0.00 | 0.00 | 56 | 1013.5 |
| 20260501222733 | 57 | 293 | 1.0 | 7.0 | 0.00 | 0.00 | 0.00 | 57 | 1013.4 |
| 20260501222029 | 57 | 296 | 2.0 | 7.0 | 0.00 | 0.00 | 0.00 | 56 | 1013.3 |